sensor_id;sensor_type;location;lat;lon;timestamp;temperature;humidity
8994;DHT22;4532;50.886;4.700;2022-12-18T00:00:17;-1.80;99.90
8994;DHT22;4532;50.886;4.700;2022-12-18T00:02:47;-1.80;99.90
8994;DHT22;4532;50.886;4.700;2022-12-18T00:05:16;-1.80;99.90
8994;DHT22;4532;50.886;4.700;2022-12-18T00:07:44;-1.80;99.90
8994;DHT22;4532;50.886;4.700;2022-12-18T00:10:13;-1.80;99.90
8994;DHT22;4532;50.886;4.700;2022-12-18T00:12:41;-1.80;99.90
8994;DHT22;4532;50.886;4.700;2022-12-18T00:15:08;-1.80;99.90
8994;DHT22;4532;50.886;4.700;2022-12-18T00:17:35;-1.80;99.90
8994;DHT22;4532;50.886;4.700;2022-12-18T00:20:05;-1.90;99.90
8994;DHT22;4532;50.886;4.700;2022-12-18T00:22:33;-1.80;99.90
8994;DHT22;4532;50.886;4.700;2022-12-18T00:25:00;-1.90;99.90
8994;DHT22;4532;50.886;4.700;2022-12-18T00:27:27;-1.90;99.90
8994;DHT22;4532;50.886;4.700;2022-12-18T00:29:54;-1.90;99.90
8994;DHT22;4532;50.886;4.700;2022-12-18T00:32:24;-2.00;99.90
8994;DHT22;4532;50.886;4.700;2022-12-18T00:34:53;-2.00;99.90
8994;DHT22;4532;50.886;4.700;2022-12-18T00:37:22;-2.00;99.90
8994;DHT22;4532;50.886;4.700;2022-12-18T00:39:50;-2.00;99.90
8994;DHT22;4532;50.886;4.700;2022-12-18T00:42:17;-2.00;99.90
8994;DHT22;4532;50.886;4.700;2022-12-18T00:45:03;-2.00;99.90
8994;DHT22;4532;50.886;4.700;2022-12-18T00:47:38;-2.10;99.90
8994;DHT22;4532;50.886;4.700;2022-12-18T00:50:05;-2.10;99.90
8994;DHT22;4532;50.886;4.700;2022-12-18T00:52:38;-2.10;99.90
8994;DHT22;4532;50.886;4.700;2022-12-18T00:55:06;-2.20;99.90
8994;DHT22;4532;50.886;4.700;2022-12-18T00:57:34;-2.20;99.90
8994;DHT22;4532;50.886;4.700;2022-12-18T01:00:05;-2.20;99.90
8994;DHT22;4532;50.886;4.700;2022-12-18T01:02:35;-2.20;99.90
8994;DHT22;4532;50.886;4.700;2022-12-18T01:05:06;-2.20;99.90
8994;DHT22;4532;50.886;4.700;2022-12-18T01:07:35;-2.20;99.90
8994;DHT22;4532;50.886;4.700;2022-12-18T01:10:04;-2.20;99.90
8994;DHT22;4532;50.886;4.700;2022-12-18T01:12:31;-2.20;99.90
8994;DHT22;4532;50.886;4.700;2022-12-18T01:14:59;-2.20;99.90
8994;DHT22;4532;50.886;4.700;2022-12-18T01:17:26;-2.20;99.90
8994;DHT22;4532;50.886;4.700;2022-12-18T01:19:55;-2.20;99.90
8994;DHT22;4532;50.886;4.700;2022-12-18T01:22:22;-2.20;99.90
8994;DHT22;4532;50.886;4.700;2022-12-18T01:24:50;-2.20;99.90
8994;DHT22;4532;50.886;4.700;2022-12-18T01:27:17;-2.20;99.90
8994;DHT22;4532;50.886;4.700;2022-12-18T01:29:44;-2.20;99.90
8994;DHT22;4532;50.886;4.700;2022-12-18T01:32:16;-2.30;99.90
8994;DHT22;4532;50.886;4.700;2022-12-18T01:34:46;-2.30;99.90
8994;DHT22;4532;50.886;4.700;2022-12-18T01:37:15;-2.30;99.90
8994;DHT22;4532;50.886;4.700;2022-12-18T01:39:43;-2.30;99.90
8994;DHT22;4532;50.886;4.700;2022-12-18T01:42:17;-2.40;99.90
8994;DHT22;4532;50.886;4.700;2022-12-18T01:44:59;-2.40;99.90
8994;DHT22;4532;50.886;4.700;2022-12-18T01:47:46;-2.40;99.90
8994;DHT22;4532;50.886;4.700;2022-12-18T01:50:15;-2.40;99.90
8994;DHT22;4532;50.886;4.700;2022-12-18T01:52:45;-2.40;99.90
8994;DHT22;4532;50.886;4.700;2022-12-18T01:55:15;-2.50;99.90
8994;DHT22;4532;50.886;4.700;2022-12-18T01:57:43;-2.50;99.90
8994;DHT22;4532;50.886;4.700;2022-12-18T02:00:16;-2.50;99.90
8994;DHT22;4532;50.886;4.700;2022-12-18T02:02:45;-2.50;99.90
8994;DHT22;4532;50.886;4.700;2022-12-18T02:05:19;-2.50;99.90
8994;DHT22;4532;50.886;4.700;2022-12-18T02:10:29;-2.60;99.90
8994;DHT22;4532;50.886;4.700;2022-12-18T02:15:46;-2.60;99.90
8994;DHT22;4532;50.886;4.700;2022-12-18T02:18:38;-2.60;99.90
8994;DHT22;4532;50.886;4.700;2022-12-18T02:21:29;-2.60;99.90
8994;DHT22;4532;50.886;4.700;2022-12-18T02:24:08;-2.60;99.90
8994;DHT22;4532;50.886;4.700;2022-12-18T02:26:53;-2.70;99.90
8994;DHT22;4532;50.886;4.700;2022-12-18T02:29:29;-2.70;99.90
8994;DHT22;4532;50.886;4.700;2022-12-18T02:32:01;-2.70;99.90
8994;DHT22;4532;50.886;4.700;2022-12-18T02:34:32;-2.70;99.90
8994;DHT22;4532;50.886;4.700;2022-12-18T02:37:05;-2.80;99.90
8994;DHT22;4532;50.886;4.700;2022-12-18T02:39:37;-2.80;99.90
8994;DHT22;4532;50.886;4.700;2022-12-18T02:42:05;-2.80;99.90
8994;DHT22;4532;50.886;4.700;2022-12-18T02:44:45;-2.90;99.90
8994;DHT22;4532;50.886;4.700;2022-12-18T02:47:15;-2.90;99.90
8994;DHT22;4532;50.886;4.700;2022-12-18T03:00:39;-3.00;99.90
8994;DHT22;4532;50.886;4.700;2022-12-18T03:03:21;-3.00;99.90
8994;DHT22;4532;50.886;4.700;2022-12-18T03:06:01;-3.00;99.90
8994;DHT22;4532;50.886;4.700;2022-12-18T03:08:31;-3.10;99.90
8994;DHT22;4532;50.886;4.700;2022-12-18T03:11:10;-3.10;99.90
8994;DHT22;4532;50.886;4.700;2022-12-18T03:13:48;-3.10;99.90
8994;DHT22;4532;50.886;4.700;2022-12-18T03:16:28;-3.10;99.90
8994;DHT22;4532;50.886;4.700;2022-12-18T03:19:24;-3.10;99.90
8994;DHT22;4532;50.886;4.700;2022-12-18T03:21:56;-3.10;99.90
8994;DHT22;4532;50.886;4.700;2022-12-18T03:24:26;-3.20;99.90
8994;DHT22;4532;50.886;4.700;2022-12-18T03:27:01;-3.20;99.90
8994;DHT22;4532;50.886;4.700;2022-12-18T03:29:52;-3.20;99.90
8994;DHT22;4532;50.886;4.700;2022-12-18T03:32:25;-3.20;99.90
8994;DHT22;4532;50.886;4.700;2022-12-18T03:34:58;-3.20;99.90
8994;DHT22;4532;50.886;4.700;2022-12-18T03:37:28;-3.20;99.90
8994;DHT22;4532;50.886;4.700;2022-12-18T03:39:55;-3.20;99.90
8994;DHT22;4532;50.886;4.700;2022-12-18T03:45:14;-3.20;99.90
8994;DHT22;4532;50.886;4.700;2022-12-18T03:53:32;-3.20;99.90
8994;DHT22;4532;50.886;4.700;2022-12-18T03:56:01;-3.20;99.90
8994;DHT22;4532;50.886;4.700;2022-12-18T03:58:33;-3.20;99.90
8994;DHT22;4532;50.886;4.700;2022-12-18T04:01:06;-3.20;99.90
8994;DHT22;4532;50.886;4.700;2022-12-18T04:03:38;-3.20;99.90
8994;DHT22;4532;50.886;4.700;2022-12-18T04:06:07;-3.20;99.90
8994;DHT22;4532;50.886;4.700;2022-12-18T04:08:35;-3.20;99.90
8994;DHT22;4532;50.886;4.700;2022-12-18T04:11:03;-3.20;99.90
8994;DHT22;4532;50.886;4.700;2022-12-18T04:13:39;-3.20;99.90
8994;DHT22;4532;50.886;4.700;2022-12-18T04:16:09;-3.20;99.90
8994;DHT22;4532;50.886;4.700;2022-12-18T04:18:37;-3.10;99.90
8994;DHT22;4532;50.886;4.700;2022-12-18T04:21:09;-3.20;99.90
8994;DHT22;4532;50.886;4.700;2022-12-18T04:23:38;-3.10;99.90
8994;DHT22;4532;50.886;4.700;2022-12-18T04:26:08;-3.10;99.90
8994;DHT22;4532;50.886;4.700;2022-12-18T04:28:35;-3.10;99.90
8994;DHT22;4532;50.886;4.700;2022-12-18T04:31:04;-3.10;99.90
8994;DHT22;4532;50.886;4.700;2022-12-18T04:33:34;-3.20;99.90
8994;DHT22;4532;50.886;4.700;2022-12-18T04:36:01;-3.20;99.90
8994;DHT22;4532;50.886;4.700;2022-12-18T04:38:28;-3.20;99.90
8994;DHT22;4532;50.886;4.700;2022-12-18T04:40:58;-3.30;99.90
8994;DHT22;4532;50.886;4.700;2022-12-18T04:43:30;-3.30;99.90
8994;DHT22;4532;50.886;4.700;2022-12-18T04:46:06;-3.30;99.90
8994;DHT22;4532;50.886;4.700;2022-12-18T04:48:39;-3.40;99.90
8994;DHT22;4532;50.886;4.700;2022-12-18T04:51:08;-3.40;99.90
8994;DHT22;4532;50.886;4.700;2022-12-18T04:53:35;-3.40;99.90
8994;DHT22;4532;50.886;4.700;2022-12-18T04:56:09;-3.40;99.90
8994;DHT22;4532;50.886;4.700;2022-12-18T04:58:40;-3.40;99.90
8994;DHT22;4532;50.886;4.700;2022-12-18T05:01:11;-3.40;99.90
8994;DHT22;4532;50.886;4.700;2022-12-18T05:03:41;-3.40;99.90
8994;DHT22;4532;50.886;4.700;2022-12-18T05:06:14;-3.40;99.90
8994;DHT22;4532;50.886;4.700;2022-12-18T05:08:41;-3.40;99.90
8994;DHT22;4532;50.886;4.700;2022-12-18T05:11:13;-3.40;99.90
8994;DHT22;4532;50.886;4.700;2022-12-18T05:13:44;-3.50;99.90
8994;DHT22;4532;50.886;4.700;2022-12-18T05:16:14;-3.50;99.90
8994;DHT22;4532;50.886;4.700;2022-12-18T05:18:42;-3.50;99.90
8994;DHT22;4532;50.886;4.700;2022-12-18T05:21:09;-3.50;99.90
8994;DHT22;4532;50.886;4.700;2022-12-18T05:23:39;-3.50;99.90
8994;DHT22;4532;50.886;4.700;2022-12-18T05:26:17;-3.50;99.90
8994;DHT22;4532;50.886;4.700;2022-12-18T05:28:45;-3.50;99.90
8994;DHT22;4532;50.886;4.700;2022-12-18T05:31:13;-3.50;99.90
8994;DHT22;4532;50.886;4.700;2022-12-18T05:33:40;-3.40;99.90
8994;DHT22;4532;50.886;4.700;2022-12-18T05:36:09;-3.40;99.90
8994;DHT22;4532;50.886;4.700;2022-12-18T05:38:37;-3.40;99.90
8994;DHT22;4532;50.886;4.700;2022-12-18T05:41:08;-3.40;99.90
8994;DHT22;4532;50.886;4.700;2022-12-18T05:43:37;-3.40;99.90
8994;DHT22;4532;50.886;4.700;2022-12-18T05:46:11;-3.40;99.90
8994;DHT22;4532;50.886;4.700;2022-12-18T05:48:39;-3.40;99.90
8994;DHT22;4532;50.886;4.700;2022-12-18T05:51:08;-3.50;99.90
8994;DHT22;4532;50.886;4.700;2022-12-18T05:53:36;-3.50;99.90
8994;DHT22;4532;50.886;4.700;2022-12-18T05:56:13;-3.50;99.90
8994;DHT22;4532;50.886;4.700;2022-12-18T05:58:42;-3.50;99.90
8994;DHT22;4532;50.886;4.700;2022-12-18T06:01:17;-3.50;99.90
8994;DHT22;4532;50.886;4.700;2022-12-18T06:03:46;-3.60;99.90
8994;DHT22;4532;50.886;4.700;2022-12-18T06:06:25;-3.60;99.90
8994;DHT22;4532;50.886;4.700;2022-12-18T06:08:56;-3.60;99.90
8994;DHT22;4532;50.886;4.700;2022-12-18T06:11:26;-3.60;99.90
8994;DHT22;4532;50.886;4.700;2022-12-18T06:13:56;-3.70;99.90
8994;DHT22;4532;50.886;4.700;2022-12-18T06:16:26;-3.60;99.90
8994;DHT22;4532;50.886;4.700;2022-12-18T06:19:02;-3.60;99.90
8994;DHT22;4532;50.886;4.700;2022-12-18T06:21:33;-3.70;99.90
8994;DHT22;4532;50.886;4.700;2022-12-18T06:24:01;-3.70;99.90
8994;DHT22;4532;50.886;4.700;2022-12-18T06:26:30;-3.70;99.90
8994;DHT22;4532;50.886;4.700;2022-12-18T06:29:00;-3.70;99.90
8994;DHT22;4532;50.886;4.700;2022-12-18T06:31:30;-3.70;99.90
8994;DHT22;4532;50.886;4.700;2022-12-18T06:33:57;-3.70;99.90
8994;DHT22;4532;50.886;4.700;2022-12-18T06:36:24;-3.70;99.90
8994;DHT22;4532;50.886;4.700;2022-12-18T06:38:51;-3.70;99.90
8994;DHT22;4532;50.886;4.700;2022-12-18T06:41:20;-3.70;99.90
8994;DHT22;4532;50.886;4.700;2022-12-18T06:43:50;-3.60;99.90
8994;DHT22;4532;50.886;4.700;2022-12-18T06:46:24;-3.60;99.90
8994;DHT22;4532;50.886;4.700;2022-12-18T06:48:51;-3.60;99.90
8994;DHT22;4532;50.886;4.700;2022-12-18T06:51:22;-3.60;99.90
8994;DHT22;4532;50.886;4.700;2022-12-18T06:53:52;-3.60;99.90
8994;DHT22;4532;50.886;4.700;2022-12-18T06:56:19;-3.60;99.90
8994;DHT22;4532;50.886;4.700;2022-12-18T06:58:48;-3.50;99.90
8994;DHT22;4532;50.886;4.700;2022-12-18T07:01:18;-3.50;99.90
8994;DHT22;4532;50.886;4.700;2022-12-18T07:03:55;-3.50;99.90
8994;DHT22;4532;50.886;4.700;2022-12-18T07:06:25;-3.50;99.90
8994;DHT22;4532;50.886;4.700;2022-12-18T07:08:57;-3.40;99.90
8994;DHT22;4532;50.886;4.700;2022-12-18T07:11:24;-3.40;99.90
8994;DHT22;4532;50.886;4.700;2022-12-18T07:13:53;-3.40;99.90
8994;DHT22;4532;50.886;4.700;2022-12-18T07:16:21;-3.40;99.90
8994;DHT22;4532;50.886;4.700;2022-12-18T07:18:54;-3.40;99.90
8994;DHT22;4532;50.886;4.700;2022-12-18T07:21:22;-3.40;99.90
8994;DHT22;4532;50.886;4.700;2022-12-18T07:23:50;-3.40;99.90
8994;DHT22;4532;50.886;4.700;2022-12-18T07:26:19;-3.30;99.90
8994;DHT22;4532;50.886;4.700;2022-12-18T07:28:50;-3.30;99.90
8994;DHT22;4532;50.886;4.700;2022-12-18T07:31:20;-3.30;99.90
8994;DHT22;4532;50.886;4.700;2022-12-18T07:33:48;-3.30;99.90
8994;DHT22;4532;50.886;4.700;2022-12-18T07:36:16;-3.20;99.90
8994;DHT22;4532;50.886;4.700;2022-12-18T07:38:43;-3.30;99.90
8994;DHT22;4532;50.886;4.700;2022-12-18T07:41:15;-3.20;99.90
8994;DHT22;4532;50.886;4.700;2022-12-18T07:43:43;-3.20;99.90
8994;DHT22;4532;50.886;4.700;2022-12-18T07:46:11;-3.20;99.90
8994;DHT22;4532;50.886;4.700;2022-12-18T07:48:43;-3.20;99.90
8994;DHT22;4532;50.886;4.700;2022-12-18T07:51:18;-3.20;99.90
8994;DHT22;4532;50.886;4.700;2022-12-18T07:53:48;-3.20;99.90
8994;DHT22;4532;50.886;4.700;2022-12-18T07:56:19;-3.20;99.90
8994;DHT22;4532;50.886;4.700;2022-12-18T07:58:56;-3.20;99.90
8994;DHT22;4532;50.886;4.700;2022-12-18T08:01:26;-3.20;99.90
8994;DHT22;4532;50.886;4.700;2022-12-18T08:03:53;-3.20;99.90
8994;DHT22;4532;50.886;4.700;2022-12-18T08:06:20;-3.20;99.90
8994;DHT22;4532;50.886;4.700;2022-12-18T08:08:54;-3.20;99.90
8994;DHT22;4532;50.886;4.700;2022-12-18T08:11:28;-3.20;99.90
8994;DHT22;4532;50.886;4.700;2022-12-18T08:13:57;-3.20;99.90
8994;DHT22;4532;50.886;4.700;2022-12-18T08:16:24;-3.20;99.90
8994;DHT22;4532;50.886;4.700;2022-12-18T08:18:54;-3.20;99.90
8994;DHT22;4532;50.886;4.700;2022-12-18T08:21:27;-3.20;99.90
8994;DHT22;4532;50.886;4.700;2022-12-18T08:24:00;-3.20;99.90
8994;DHT22;4532;50.886;4.700;2022-12-18T08:26:30;-3.20;99.90
8994;DHT22;4532;50.886;4.700;2022-12-18T08:28:59;-3.20;99.90
8994;DHT22;4532;50.886;4.700;2022-12-18T08:31:28;-3.20;99.90
8994;DHT22;4532;50.886;4.700;2022-12-18T08:33:58;-3.10;99.90
8994;DHT22;4532;50.886;4.700;2022-12-18T08:36:25;-3.10;99.90
8994;DHT22;4532;50.886;4.700;2022-12-18T08:38:56;-3.00;99.90
8994;DHT22;4532;50.886;4.700;2022-12-18T08:41:25;-3.00;99.90
8994;DHT22;4532;50.886;4.700;2022-12-18T08:43:55;-2.90;99.90
8994;DHT22;4532;50.886;4.700;2022-12-18T08:46:41;-2.90;99.90
8994;DHT22;4532;50.886;4.700;2022-12-18T08:49:10;-2.90;99.90
8994;DHT22;4532;50.886;4.700;2022-12-18T08:51:42;-2.80;99.90
8994;DHT22;4532;50.886;4.700;2022-12-18T08:54:17;-2.80;99.90
8994;DHT22;4532;50.886;4.700;2022-12-18T08:56:44;-2.70;99.90
8994;DHT22;4532;50.886;4.700;2022-12-18T08:59:11;-2.70;99.90
8994;DHT22;4532;50.886;4.700;2022-12-18T09:01:46;-2.60;99.90
8994;DHT22;4532;50.886;4.700;2022-12-18T09:04:16;-2.60;99.90
8994;DHT22;4532;50.886;4.700;2022-12-18T09:06:43;-2.50;99.90
8994;DHT22;4532;50.886;4.700;2022-12-18T09:09:13;-2.50;99.90
8994;DHT22;4532;50.886;4.700;2022-12-18T09:11:40;-2.40;99.90
8994;DHT22;4532;50.886;4.700;2022-12-18T09:14:09;-2.40;99.90
8994;DHT22;4532;50.886;4.700;2022-12-18T09:16:39;-2.30;99.90
8994;DHT22;4532;50.886;4.700;2022-12-18T09:19:09;-2.30;99.90
8994;DHT22;4532;50.886;4.700;2022-12-18T09:21:42;-2.20;99.90
8994;DHT22;4532;50.886;4.700;2022-12-18T09:24:17;-2.20;99.90
8994;DHT22;4532;50.886;4.700;2022-12-18T09:26:53;-2.10;99.90
8994;DHT22;4532;50.886;4.700;2022-12-18T09:29:24;-2.00;99.90
8994;DHT22;4532;50.886;4.700;2022-12-18T09:31:53;-2.00;99.90
8994;DHT22;4532;50.886;4.700;2022-12-18T09:34:20;-1.90;99.90
8994;DHT22;4532;50.886;4.700;2022-12-18T09:36:50;-1.90;99.90
8994;DHT22;4532;50.886;4.700;2022-12-18T09:39:17;-1.80;99.90
8994;DHT22;4532;50.886;4.700;2022-12-18T09:41:55;-1.70;99.90
8994;DHT22;4532;50.886;4.700;2022-12-18T09:44:32;-1.60;99.90
8994;DHT22;4532;50.886;4.700;2022-12-18T09:49:56;-1.50;99.90
8994;DHT22;4532;50.886;4.700;2022-12-18T09:52:39;-1.40;99.90
8994;DHT22;4532;50.886;4.700;2022-12-18T09:57:51;-1.30;99.90
8994;DHT22;4532;50.886;4.700;2022-12-18T10:00:24;-1.20;99.90
8994;DHT22;4532;50.886;4.700;2022-12-18T10:03:01;-1.20;99.90
8994;DHT22;4532;50.886;4.700;2022-12-18T10:08:19;-1.10;99.90
8994;DHT22;4532;50.886;4.700;2022-12-18T10:11:01;-1.00;99.90
8994;DHT22;4532;50.886;4.700;2022-12-18T10:19:45;-0.70;99.90
8994;DHT22;4532;50.886;4.700;2022-12-18T10:22:32;-0.70;99.90
8994;DHT22;4532;50.886;4.700;2022-12-18T10:27:55;-0.60;99.90
8994;DHT22;4532;50.886;4.700;2022-12-18T10:30:27;-0.50;99.90
8994;DHT22;4532;50.886;4.700;2022-12-18T10:33:01;-0.40;99.90
8994;DHT22;4532;50.886;4.700;2022-12-18T10:35:31;-0.40;99.90
8994;DHT22;4532;50.886;4.700;2022-12-18T10:38:05;-0.30;99.90
8994;DHT22;4532;50.886;4.700;2022-12-18T10:43:20;-0.20;99.90
8994;DHT22;4532;50.886;4.700;2022-12-18T10:51:24;-0.10;99.90
8994;DHT22;4532;50.886;4.700;2022-12-18T10:53:59;0.00;99.90
8994;DHT22;4532;50.886;4.700;2022-12-18T10:56:30;0.00;99.90
8994;DHT22;4532;50.886;4.700;2022-12-18T10:59:01;0.10;99.90
8994;DHT22;4532;50.886;4.700;2022-12-18T11:04:30;0.20;99.90
8994;DHT22;4532;50.886;4.700;2022-12-18T11:07:04;0.30;99.90
8994;DHT22;4532;50.886;4.700;2022-12-18T11:09:36;0.30;99.90
8994;DHT22;4532;50.886;4.700;2022-12-18T11:12:19;0.40;99.90
8994;DHT22;4532;50.886;4.700;2022-12-18T11:14:52;0.40;99.90
8994;DHT22;4532;50.886;4.700;2022-12-18T11:17:32;0.50;99.90
8994;DHT22;4532;50.886;4.700;2022-12-18T11:23:01;0.60;99.90
8994;DHT22;4532;50.886;4.700;2022-12-18T11:25:32;0.70;99.90
8994;DHT22;4532;50.886;4.700;2022-12-18T11:30:49;0.80;99.90
8994;DHT22;4532;50.886;4.700;2022-12-18T11:33:20;0.90;99.90
8994;DHT22;4532;50.886;4.700;2022-12-18T11:35:55;0.90;99.90
8994;DHT22;4532;50.886;4.700;2022-12-18T11:38:32;1.00;99.90
8994;DHT22;4532;50.886;4.700;2022-12-18T11:41:39;1.00;99.90
8994;DHT22;4532;50.886;4.700;2022-12-18T11:44:31;1.10;99.90
8994;DHT22;4532;50.886;4.700;2022-12-18T11:47:16;1.10;99.90
8994;DHT22;4532;50.886;4.700;2022-12-18T11:49:49;1.20;99.90
8994;DHT22;4532;50.886;4.700;2022-12-18T11:55:00;1.30;99.90
8994;DHT22;4532;50.886;4.700;2022-12-18T11:57:54;1.30;99.90
8994;DHT22;4532;50.886;4.700;2022-12-18T12:00:23;1.40;99.90
8994;DHT22;4532;50.886;4.700;2022-12-18T12:16:28;1.60;99.90
8994;DHT22;4532;50.886;4.700;2022-12-18T12:21:43;1.70;99.90
8994;DHT22;4532;50.886;4.700;2022-12-18T12:27:54;1.80;99.90
8994;DHT22;4532;50.886;4.700;2022-12-18T12:30:46;1.80;99.90
8994;DHT22;4532;50.886;4.700;2022-12-18T12:34:11;1.80;99.90
8994;DHT22;4532;50.886;4.700;2022-12-18T12:39:23;1.90;99.90
8994;DHT22;4532;50.886;4.700;2022-12-18T12:41:55;2.00;99.90
8994;DHT22;4532;50.886;4.700;2022-12-18T12:44:46;2.00;99.90
8994;DHT22;4532;50.886;4.700;2022-12-18T12:47:38;2.00;99.90
8994;DHT22;4532;50.886;4.700;2022-12-18T12:50:16;2.10;99.90
8994;DHT22;4532;50.886;4.700;2022-12-18T12:52:51;2.10;99.90
8994;DHT22;4532;50.886;4.700;2022-12-18T12:55:22;2.20;99.90
8994;DHT22;4532;50.886;4.700;2022-12-18T12:58:06;2.20;99.90
8994;DHT22;4532;50.886;4.700;2022-12-18T13:03:58;2.30;99.90
8994;DHT22;4532;50.886;4.700;2022-12-18T13:09:10;2.40;99.90
8994;DHT22;4532;50.886;4.700;2022-12-18T13:14:34;2.50;99.90
8994;DHT22;4532;50.886;4.700;2022-12-18T13:19:51;2.50;99.90
8994;DHT22;4532;50.886;4.700;2022-12-18T13:25:00;2.60;99.90
8994;DHT22;4532;50.886;4.700;2022-12-18T13:38:24;2.80;99.90
8994;DHT22;4532;50.886;4.700;2022-12-18T13:43:42;2.80;99.90
8994;DHT22;4532;50.886;4.700;2022-12-18T13:46:29;2.90;99.90
8994;DHT22;4532;50.886;4.700;2022-12-18T13:49:01;2.90;99.90
8994;DHT22;4532;50.886;4.700;2022-12-18T13:51:33;2.90;99.90
8994;DHT22;4532;50.886;4.700;2022-12-18T13:54:06;2.90;99.90
8994;DHT22;4532;50.886;4.700;2022-12-18T13:56:44;2.90;99.90
8994;DHT22;4532;50.886;4.700;2022-12-18T14:02:00;3.00;99.90
8994;DHT22;4532;50.886;4.700;2022-12-18T14:04:32;3.00;99.90
8994;DHT22;4532;50.886;4.700;2022-12-18T14:07:16;3.00;99.90
8994;DHT22;4532;50.886;4.700;2022-12-18T14:09:49;3.00;99.90
8994;DHT22;4532;50.886;4.700;2022-12-18T14:12:26;3.00;99.90
8994;DHT22;4532;50.886;4.700;2022-12-18T14:17:50;3.00;99.90
8994;DHT22;4532;50.886;4.700;2022-12-18T14:20:18;3.00;99.90
8994;DHT22;4532;50.886;4.700;2022-12-18T14:22:48;3.00;99.90
8994;DHT22;4532;50.886;4.700;2022-12-18T14:25:24;3.00;99.90
8994;DHT22;4532;50.886;4.700;2022-12-18T14:30:41;3.00;99.90
8994;DHT22;4532;50.886;4.700;2022-12-18T14:33:40;3.00;99.90
8994;DHT22;4532;50.886;4.700;2022-12-18T14:36:20;3.00;99.90
8994;DHT22;4532;50.886;4.700;2022-12-18T14:38:50;3.00;99.90
8994;DHT22;4532;50.886;4.700;2022-12-18T14:41:21;3.00;99.90
8994;DHT22;4532;50.886;4.700;2022-12-18T14:43:54;3.00;99.90
8994;DHT22;4532;50.886;4.700;2022-12-18T14:49:34;3.00;99.90
8994;DHT22;4532;50.886;4.700;2022-12-18T14:52:05;3.00;99.90
8994;DHT22;4532;50.886;4.700;2022-12-18T14:54:35;3.00;99.90
8994;DHT22;4532;50.886;4.700;2022-12-18T14:57:25;3.00;99.90
8994;DHT22;4532;50.886;4.700;2022-12-18T15:00:05;3.00;99.90
8994;DHT22;4532;50.886;4.700;2022-12-18T15:02:38;3.00;99.90
8994;DHT22;4532;50.886;4.700;2022-12-18T15:07:53;3.00;99.90
8994;DHT22;4532;50.886;4.700;2022-12-18T15:10:26;3.00;99.90
8994;DHT22;4532;50.886;4.700;2022-12-18T15:20:41;3.00;99.90
8994;DHT22;4532;50.886;4.700;2022-12-18T15:23:21;3.00;99.90
8994;DHT22;4532;50.886;4.700;2022-12-18T15:25:57;3.00;99.90
8994;DHT22;4532;50.886;4.700;2022-12-18T15:36:21;3.00;99.90
8994;DHT22;4532;50.886;4.700;2022-12-18T15:38:57;3.00;99.90
8994;DHT22;4532;50.886;4.700;2022-12-18T15:41:34;3.00;99.90
8994;DHT22;4532;50.886;4.700;2022-12-18T15:44:22;3.00;99.90
8994;DHT22;4532;50.886;4.700;2022-12-18T15:46:50;3.00;99.90
8994;DHT22;4532;50.886;4.700;2022-12-18T15:49:17;3.00;99.90
8994;DHT22;4532;50.886;4.700;2022-12-18T15:51:44;3.00;99.90
8994;DHT22;4532;50.886;4.700;2022-12-18T15:54:15;3.00;99.90
8994;DHT22;4532;50.886;4.700;2022-12-18T15:56:43;3.00;99.90
8994;DHT22;4532;50.886;4.700;2022-12-18T15:59:28;3.00;99.90
8994;DHT22;4532;50.886;4.700;2022-12-18T16:02:07;3.00;99.90
8994;DHT22;4532;50.886;4.700;2022-12-18T16:04:41;3.00;99.90
8994;DHT22;4532;50.886;4.700;2022-12-18T16:07:14;3.00;99.90
8994;DHT22;4532;50.886;4.700;2022-12-18T16:09:51;3.00;99.90
8994;DHT22;4532;50.886;4.700;2022-12-18T16:12:23;3.00;99.90
8994;DHT22;4532;50.886;4.700;2022-12-18T16:14:51;3.00;99.90
8994;DHT22;4532;50.886;4.700;2022-12-18T16:17:20;3.00;99.90
8994;DHT22;4532;50.886;4.700;2022-12-18T16:19:47;3.00;99.90
8994;DHT22;4532;50.886;4.700;2022-12-18T16:22:25;3.00;99.90
8994;DHT22;4532;50.886;4.700;2022-12-18T16:24:54;3.00;99.90
8994;DHT22;4532;50.886;4.700;2022-12-18T16:27:23;3.00;99.90
8994;DHT22;4532;50.886;4.700;2022-12-18T16:29:52;3.10;99.90
8994;DHT22;4532;50.886;4.700;2022-12-18T16:32:20;3.10;99.90
8994;DHT22;4532;50.886;4.700;2022-12-18T16:34:53;3.00;99.90
8994;DHT22;4532;50.886;4.700;2022-12-18T16:37:26;3.10;99.90
8994;DHT22;4532;50.886;4.700;2022-12-18T16:39:55;3.00;99.90
8994;DHT22;4532;50.886;4.700;2022-12-18T16:42:22;3.00;99.90
8994;DHT22;4532;50.886;4.700;2022-12-18T16:44:50;3.00;99.90
8994;DHT22;4532;50.886;4.700;2022-12-18T16:47:17;3.00;99.90
8994;DHT22;4532;50.886;4.700;2022-12-18T16:49:45;3.00;99.90
8994;DHT22;4532;50.886;4.700;2022-12-18T16:52:13;3.00;99.90
8994;DHT22;4532;50.886;4.700;2022-12-18T16:54:42;3.00;99.90
8994;DHT22;4532;50.886;4.700;2022-12-18T16:57:16;3.00;99.90
8994;DHT22;4532;50.886;4.700;2022-12-18T16:59:45;3.00;99.90
8994;DHT22;4532;50.886;4.700;2022-12-18T17:02:14;3.00;99.90
8994;DHT22;4532;50.886;4.700;2022-12-18T17:04:43;3.00;99.90
8994;DHT22;4532;50.886;4.700;2022-12-18T17:07:12;3.00;99.90
8994;DHT22;4532;50.886;4.700;2022-12-18T17:09:39;3.00;99.90
8994;DHT22;4532;50.886;4.700;2022-12-18T17:12:09;3.10;99.90
8994;DHT22;4532;50.886;4.700;2022-12-18T17:14:36;3.00;99.90
8994;DHT22;4532;50.886;4.700;2022-12-18T17:17:03;3.10;99.90
8994;DHT22;4532;50.886;4.700;2022-12-18T17:19:51;3.10;99.90
8994;DHT22;4532;50.886;4.700;2022-12-18T17:22:19;3.10;99.90
8994;DHT22;4532;50.886;4.700;2022-12-18T17:24:46;3.10;99.90
8994;DHT22;4532;50.886;4.700;2022-12-18T17:27:14;3.10;99.90
8994;DHT22;4532;50.886;4.700;2022-12-18T17:29:41;3.10;99.90
8994;DHT22;4532;50.886;4.700;2022-12-18T17:32:14;3.10;99.90
8994;DHT22;4532;50.886;4.700;2022-12-18T17:34:42;3.10;99.90
8994;DHT22;4532;50.886;4.700;2022-12-18T17:37:11;3.20;99.90
8994;DHT22;4532;50.886;4.700;2022-12-18T17:39:41;3.20;99.90
8994;DHT22;4532;50.886;4.700;2022-12-18T17:42:08;3.20;99.90
8994;DHT22;4532;50.886;4.700;2022-12-18T17:44:42;3.20;99.90
8994;DHT22;4532;50.886;4.700;2022-12-18T17:47:14;3.20;99.90
8994;DHT22;4532;50.886;4.700;2022-12-18T17:49:41;3.20;99.90
8994;DHT22;4532;50.886;4.700;2022-12-18T17:52:10;3.20;99.90
8994;DHT22;4532;50.886;4.700;2022-12-18T17:54:38;3.30;99.90
8994;DHT22;4532;50.886;4.700;2022-12-18T17:57:07;3.30;99.90
8994;DHT22;4532;50.886;4.700;2022-12-18T17:59:40;3.30;99.90
8994;DHT22;4532;50.886;4.700;2022-12-18T18:02:10;3.30;99.90
8994;DHT22;4532;50.886;4.700;2022-12-18T18:04:38;3.30;99.90
8994;DHT22;4532;50.886;4.700;2022-12-18T18:07:05;3.30;99.90
8994;DHT22;4532;50.886;4.700;2022-12-18T18:09:35;3.30;99.90
8994;DHT22;4532;50.886;4.700;2022-12-18T18:12:05;3.40;99.90
8994;DHT22;4532;50.886;4.700;2022-12-18T18:14:51;3.40;99.90
8994;DHT22;4532;50.886;4.700;2022-12-18T18:17:18;3.40;99.90
8994;DHT22;4532;50.886;4.700;2022-12-18T18:19:46;3.40;99.90
8994;DHT22;4532;50.886;4.700;2022-12-18T18:22:20;3.40;99.90
8994;DHT22;4532;50.886;4.700;2022-12-18T18:24:48;3.40;99.90
8994;DHT22;4532;50.886;4.700;2022-12-18T18:27:16;3.40;99.90
8994;DHT22;4532;50.886;4.700;2022-12-18T18:29:43;3.40;99.90
8994;DHT22;4532;50.886;4.700;2022-12-18T18:32:12;3.40;99.90
8994;DHT22;4532;50.886;4.700;2022-12-18T18:34:40;3.50;99.90
8994;DHT22;4532;50.886;4.700;2022-12-18T18:37:09;3.50;99.90
8994;DHT22;4532;50.886;4.700;2022-12-18T18:39:37;3.50;99.90
8994;DHT22;4532;50.886;4.700;2022-12-18T18:42:04;3.50;99.90
8994;DHT22;4532;50.886;4.700;2022-12-18T18:44:32;3.50;99.90
8994;DHT22;4532;50.886;4.700;2022-12-18T18:47:01;3.50;99.90
8994;DHT22;4532;50.886;4.700;2022-12-18T18:49:31;3.50;99.90
8994;DHT22;4532;50.886;4.700;2022-12-18T18:52:01;3.50;99.90
8994;DHT22;4532;50.886;4.700;2022-12-18T18:54:30;3.50;99.90
8994;DHT22;4532;50.886;4.700;2022-12-18T18:56:58;3.50;99.90
8994;DHT22;4532;50.886;4.700;2022-12-18T18:59:45;3.50;99.90